createdAt,value
2017-08-08T00:01:35.149Z,11.60
2017-08-08T00:04:01.192Z,10.33
2017-08-08T00:06:27.237Z,10.50
2017-08-08T00:08:53.285Z,10.33
2017-08-08T00:11:20.060Z,10.47
2017-08-08T00:13:46.082Z,10.43
2017-08-08T00:16:12.126Z,10.93
2017-08-08T00:18:38.896Z,11.50
2017-08-08T00:21:04.960Z,11.20
2017-08-08T00:23:31.749Z,10.17
2017-08-08T00:25:57.788Z,11.13
2017-08-08T00:28:23.820Z,9.13
2017-08-08T00:30:49.840Z,9.17
2017-08-08T00:33:15.887Z,10.60
2017-08-08T00:35:41.935Z,10.27
2017-08-08T00:38:08.784Z,10.17
2017-08-08T00:40:34.821Z,10.20
2017-08-08T00:43:00.842Z,11.00
2017-08-08T00:45:26.900Z,9.93
2017-08-08T00:47:52.960Z,10.93
2017-08-08T00:50:18.983Z,11.33
2017-08-08T00:52:45.017Z,10.80
2017-08-08T00:55:11.041Z,10.80
2017-08-08T00:57:37.801Z,10.50
2017-08-08T01:00:03.825Z,11.00
2017-08-08T01:02:29.849Z,10.60
2017-08-08T01:04:55.877Z,10.27
2017-08-08T01:07:22.629Z,11.53
2017-08-08T01:09:48.645Z,9.63
2017-08-08T01:12:14.658Z,10.70
2017-08-08T01:14:40.672Z,10.43
2017-08-08T01:17:06.688Z,12.17
2017-08-08T01:19:32.714Z,11.03
2017-08-08T01:21:58.732Z,11.53
2017-08-08T01:24:24.757Z,11.30
2017-08-08T01:26:51.527Z,11.47
2017-08-08T01:29:17.540Z,10.70
2017-08-08T01:31:43.573Z,10.70
2017-08-08T01:34:09.589Z,10.77
2017-08-08T01:36:35.616Z,11.00
2017-08-08T01:39:01.717Z,10.50
2017-08-08T01:41:27.742Z,10.63
2017-08-08T01:43:54.497Z,10.00
2017-08-08T01:46:20.520Z,10.23
2017-08-08T01:48:46.553Z,11.27
2017-08-08T01:51:12.589Z,9.80
2017-08-08T01:53:39.365Z,10.60
2017-08-08T01:56:05.421Z,9.27
2017-08-08T01:58:31.456Z,9.27
2017-08-08T02:00:57.464Z,10.43
2017-08-08T02:03:23.503Z,8.97
2017-08-08T02:05:49.508Z,8.83
2017-08-08T02:08:15.532Z,9.13
2017-08-08T02:10:41.574Z,9.17
2017-08-08T02:13:08.337Z,10.00
2017-08-08T02:15:34.365Z,9.83
2017-08-08T02:18:00.385Z,9.90
2017-08-08T02:20:26.412Z,9.17
2017-08-08T02:22:52.433Z,10.10
2017-08-08T02:25:18.452Z,8.90
2017-08-08T02:27:44.517Z,9.70
2017-08-08T02:30:10.540Z,9.50
2017-08-08T02:32:36.557Z,10.33
2017-08-08T02:35:02.576Z,9.17
2017-08-08T02:37:29.390Z,9.17
2017-08-08T02:39:55.415Z,9.37
2017-08-08T02:42:21.476Z,10.53
2017-08-08T02:44:47.529Z,10.53
2017-08-08T02:47:14.301Z,8.80
2017-08-08T02:49:47.436Z,9.63
2017-08-08T02:52:13.460Z,9.07
2017-08-08T02:54:39.500Z,9.20
2017-08-08T02:57:05.524Z,8.87
2017-08-08T02:59:31.625Z,8.50
2017-08-08T03:01:57.697Z,9.50
2017-08-08T03:04:23.738Z,9.00
2017-08-08T03:06:49.774Z,8.77
2017-08-08T03:09:15.820Z,9.47
2017-08-08T03:11:41.945Z,8.40
2017-08-08T03:14:07.977Z,8.47
2017-08-08T03:16:34.016Z,8.90
2017-08-08T03:19:00.043Z,8.83
2017-08-08T03:21:26.808Z,9.90
2017-08-08T03:23:52.845Z,8.90
2017-08-08T03:26:40.967Z,9.60
2017-08-08T03:29:06.998Z,10.20
2017-08-08T03:31:33.022Z,9.40
2017-08-08T03:33:59.790Z,9.80
2017-08-08T03:36:25.828Z,10.50
2017-08-08T03:38:51.877Z,9.30
2017-08-08T03:41:18.649Z,9.43
2017-08-08T03:43:44.685Z,9.03
2017-08-08T03:46:10.717Z,10.33
2017-08-08T03:48:36.769Z,10.07
2017-08-08T03:51:02.811Z,9.60
2017-08-08T03:53:28.840Z,9.37
2017-08-08T03:55:55.599Z,9.57
2017-08-08T03:58:21.641Z,8.73
2017-08-08T04:00:47.682Z,9.40
2017-08-08T04:03:13.797Z,9.20
2017-08-08T04:05:39.865Z,8.33
2017-08-08T04:08:05.921Z,9.67
2017-08-08T04:10:31.972Z,8.40
2017-08-08T04:12:58.024Z,8.47
2017-08-08T04:15:24.065Z,8.73
2017-08-08T04:17:50.139Z,9.50
2017-08-08T04:20:16.974Z,8.40
2017-08-08T04:22:43.100Z,8.30
2017-08-08T04:25:09.145Z,8.50
2017-08-08T04:27:35.171Z,8.77
2017-08-08T04:30:01.212Z,9.70
2017-08-08T04:32:28.010Z,9.00
2017-08-08T04:34:54.838Z,8.93
2017-08-08T04:37:20.885Z,8.50
2017-08-08T04:39:46.905Z,8.53
2017-08-08T04:42:12.908Z,8.20
2017-08-08T04:44:38.916Z,7.70
2017-08-08T04:47:04.916Z,7.90
2017-08-08T04:49:30.916Z,8.33
2017-08-08T04:51:56.933Z,8.60
2017-08-08T04:54:22.940Z,8.10
2017-08-08T04:56:48.952Z,8.73
2017-08-08T04:59:14.952Z,9.67
2017-08-08T05:01:41.716Z,8.77
2017-08-08T05:04:07.741Z,8.80
2017-08-08T05:06:33.772Z,7.87
2017-08-08T05:08:59.803Z,7.60
2017-08-08T05:11:26.560Z,7.67
2017-08-08T05:13:52.601Z,7.40
2017-08-08T05:16:18.611Z,7.10
2017-08-08T05:18:44.649Z,7.70
2017-08-08T05:21:10.743Z,7.13
2017-08-08T05:23:36.797Z,7.17
2017-08-08T05:26:02.833Z,7.50
2017-08-08T05:28:28.957Z,8.27
2017-08-08T05:30:54.981Z,8.23
2017-08-08T05:33:21.021Z,8.00
2017-08-08T05:35:47.029Z,8.40
2017-08-08T05:38:13.054Z,7.57
2017-08-08T05:40:39.114Z,8.10
2017-08-08T05:43:06.033Z,6.93
2017-08-08T05:45:32.060Z,7.93
2017-08-08T05:47:58.079Z,7.40
2017-08-08T05:50:25.280Z,7.53
2017-08-08T05:52:51.410Z,7.80
2017-08-08T05:55:17.482Z,7.33
2017-08-08T05:57:43.507Z,7.90
2017-08-08T06:00:09.548Z,7.60
2017-08-08T06:02:36.324Z,7.30
2017-08-08T06:05:02.374Z,7.83
2017-08-08T06:07:28.394Z,8.40
2017-08-08T06:09:55.159Z,8.50
2017-08-08T06:12:21.211Z,7.60
2017-08-08T06:14:47.248Z,7.67
2017-08-08T06:17:13.281Z,7.20
2017-08-08T06:19:39.332Z,6.90
2017-08-08T06:22:06.109Z,7.40
2017-08-08T06:24:32.136Z,6.83
2017-08-08T06:26:58.161Z,7.43
2017-08-08T06:29:24.177Z,6.43
2017-08-08T06:31:50.193Z,7.47
2017-08-08T06:34:16.206Z,7.53
2017-08-08T06:36:42.254Z,7.03
2017-08-08T06:39:08.309Z,8.00
2017-08-08T06:41:34.358Z,6.93
2017-08-08T06:44:00.404Z,6.83
2017-08-08T06:46:26.432Z,6.97
2017-08-08T06:48:52.480Z,7.37
2017-08-08T06:51:18.521Z,6.43
2017-08-08T06:53:44.622Z,7.37
2017-08-08T06:56:10.661Z,6.40
2017-08-08T06:58:36.725Z,6.63
2017-08-08T07:01:02.772Z,6.83
2017-08-08T07:03:28.801Z,8.10
2017-08-08T07:05:55.001Z,7.20
2017-08-08T07:08:21.049Z,7.10
2017-08-08T07:10:47.072Z,6.50
2017-08-08T07:13:13.102Z,5.50
2017-08-08T07:15:39.160Z,6.47
2017-08-08T07:18:05.937Z,7.17
2017-08-08T07:20:31.972Z,7.13
2017-08-08T07:22:58.014Z,7.10
2017-08-08T07:25:24.069Z,7.57
2017-08-08T07:27:50.096Z,8.10
2017-08-08T07:30:16.173Z,6.80
2017-08-08T07:32:42.236Z,7.00
2017-08-08T07:35:09.025Z,6.73
2017-08-08T07:37:35.094Z,7.23
2017-08-08T07:40:01.135Z,6.83
2017-08-08T07:42:27.193Z,6.00
2017-08-08T07:44:53.269Z,7.30
2017-08-08T07:47:19.298Z,6.80
2017-08-08T07:49:45.322Z,6.07
2017-08-08T07:52:11.348Z,5.80
2017-08-08T07:54:38.137Z,6.50
2017-08-08T07:57:05.969Z,6.40
2017-08-08T07:59:33.772Z,8.30
2017-08-08T08:02:01.580Z,10.63
2017-08-08T08:04:29.392Z,10.90
2017-08-08T08:06:57.225Z,7.93
2017-08-08T08:09:25.049Z,7.00
2017-08-08T08:11:52.866Z,5.03
2017-08-08T08:14:20.681Z,6.80
2017-08-08T08:16:48.488Z,4.90
2017-08-08T08:19:16.309Z,6.00
2017-08-08T08:21:44.099Z,11.30
2017-08-08T08:24:11.913Z,7.47
2017-08-08T08:26:39.725Z,7.80
2017-08-08T08:29:07.549Z,6.20
2017-08-08T08:31:35.348Z,5.80
2017-08-08T08:34:03.149Z,5.77
2017-08-08T08:36:30.956Z,6.00
2017-08-08T08:38:58.776Z,5.77
2017-08-08T08:41:27.350Z,5.67
2017-08-08T08:43:55.200Z,6.07
2017-08-08T08:46:22.996Z,5.27
2017-08-08T08:48:50.809Z,5.57
2017-08-08T08:51:18.630Z,4.90
2017-08-08T08:53:46.440Z,6.40
2017-08-08T08:56:14.254Z,5.70
2017-08-08T08:58:42.069Z,5.43
2017-08-08T09:01:09.912Z,5.63
2017-08-08T09:03:37.721Z,5.30
2017-08-08T09:06:05.546Z,5.20
2017-08-08T09:08:33.349Z,5.33
2017-08-08T09:11:01.178Z,7.47
2017-08-08T09:13:28.982Z,15.23
2017-08-08T09:15:56.804Z,19.77
2017-08-08T09:18:24.613Z,4.57
2017-08-08T09:20:52.424Z,4.93
2017-08-08T09:23:20.536Z,20.97
2017-08-08T09:25:48.356Z,9.57
2017-08-08T09:28:16.165Z,15.17
2017-08-08T09:30:43.969Z,8.13
2017-08-08T09:33:11.774Z,5.53
2017-08-08T09:35:39.577Z,6.23
2017-08-08T09:38:07.388Z,5.37
2017-08-08T09:40:35.175Z,5.07
2017-08-08T09:43:02.976Z,4.73
2017-08-08T09:45:30.792Z,5.17
2017-08-08T09:47:58.587Z,4.90
2017-08-08T09:50:26.367Z,5.77
2017-08-08T09:52:54.160Z,5.63
2017-08-08T09:55:21.952Z,5.77
2017-08-08T09:57:49.762Z,18.37
2017-08-08T10:00:17.584Z,7.57
2017-08-08T10:02:43.613Z,4.43
2017-08-08T10:05:09.645Z,4.43
2017-08-08T10:07:35.670Z,5.00
2017-08-08T10:10:02.439Z,4.97
2017-08-08T10:12:28.444Z,3.97
2017-08-08T10:14:54.465Z,4.03
2017-08-08T10:17:20.489Z,4.53
2017-08-08T10:19:46.518Z,4.50
2017-08-08T10:22:13.317Z,4.70
2017-08-08T10:24:39.356Z,4.50
2017-08-08T10:27:06.110Z,5.80
2017-08-08T10:29:32.137Z,4.70
2017-08-08T10:31:58.185Z,4.10
2017-08-08T10:34:24.210Z,4.60
2017-08-08T10:36:50.244Z,4.50
2017-08-08T10:39:16.268Z,4.47
2017-08-08T10:41:44.076Z,5.27
2017-08-08T10:44:11.859Z,6.87
2017-08-08T10:46:39.661Z,5.07
2017-08-08T10:49:07.472Z,4.67
2017-08-08T10:51:35.281Z,5.83
2017-08-08T10:54:03.072Z,5.20
2017-08-08T10:56:30.868Z,4.80
2017-08-08T10:58:58.675Z,9.60
2017-08-08T11:01:26.460Z,7.17
2017-08-08T11:03:54.253Z,6.30
2017-08-08T11:06:22.045Z,5.27
2017-08-08T11:08:49.848Z,6.30
2017-08-08T11:11:17.632Z,6.80
2017-08-08T11:13:45.464Z,6.97
2017-08-08T11:16:13.258Z,6.93
2017-08-08T11:18:41.057Z,6.10
2017-08-08T11:21:08.862Z,6.40
2017-08-08T11:23:36.665Z,6.97
2017-08-08T11:26:04.456Z,5.70
2017-08-08T11:28:32.268Z,6.83
2017-08-08T11:31:00.060Z,6.60
2017-08-08T11:33:27.852Z,6.70
2017-08-08T11:35:55.670Z,7.50
2017-08-08T11:38:23.481Z,6.33
2017-08-08T11:40:51.285Z,6.40
2017-08-08T11:43:19.080Z,7.23
2017-08-08T11:45:46.889Z,7.53
2017-08-08T11:48:14.677Z,7.03
2017-08-08T11:50:41.084Z,7.40
2017-08-08T11:53:07.094Z,6.13
2017-08-08T11:55:33.124Z,7.27
2017-08-08T11:57:59.166Z,6.97
2017-08-08T12:00:25.938Z,6.87
2017-08-08T12:02:52.001Z,6.87
2017-08-08T12:05:18.044Z,7.40
2017-08-08T12:07:44.051Z,6.83
2017-08-08T12:10:10.233Z,6.80
2017-08-08T12:12:37.016Z,5.63
2017-08-08T12:15:03.061Z,6.00
2017-08-08T12:17:29.106Z,6.50
2017-08-08T12:19:55.129Z,6.07
2017-08-08T12:22:21.168Z,6.23
2017-08-08T12:24:47.192Z,6.70
2017-08-08T12:27:13.213Z,6.67
2017-08-08T12:29:39.976Z,6.23
2017-08-08T12:32:06.005Z,5.93
2017-08-08T12:34:32.072Z,6.23
2017-08-08T12:36:58.097Z,6.33
2017-08-08T12:39:24.143Z,5.93
2017-08-08T12:41:50.174Z,6.30
2017-08-08T12:44:16.957Z,7.40
2017-08-08T12:46:43.004Z,6.07
2017-08-08T12:49:09.050Z,6.37
2017-08-08T12:51:35.085Z,6.33
2017-08-08T12:54:01.157Z,6.93
2017-08-08T12:56:27.202Z,6.53
2017-08-08T12:58:53.282Z,7.00
2017-08-08T13:01:19.333Z,6.83
2017-08-08T13:03:46.863Z,6.47
2017-08-08T13:06:14.698Z,6.93
2017-08-08T13:08:42.522Z,6.63
2017-08-08T13:11:10.336Z,7.23
2017-08-08T13:13:38.145Z,6.07
2017-08-08T13:16:05.948Z,6.30
2017-08-08T13:18:33.740Z,6.03
2017-08-08T13:21:01.594Z,6.60
2017-08-08T13:23:29.416Z,6.33
2017-08-08T13:25:57.241Z,6.47
2017-08-08T13:28:25.061Z,6.43
2017-08-08T13:30:52.877Z,7.17
2017-08-08T13:33:20.689Z,6.27
2017-08-08T13:35:48.512Z,5.93
2017-08-08T13:38:16.345Z,5.90
2017-08-08T13:40:44.202Z,6.40
2017-08-08T13:43:12.148Z,5.80
2017-08-08T13:45:39.933Z,6.33
2017-08-08T13:48:07.725Z,6.03
2017-08-08T13:50:35.508Z,6.03
2017-08-08T13:53:03.315Z,6.60
2017-08-08T13:55:31.105Z,6.37
2017-08-08T13:57:58.929Z,7.50
2017-08-08T14:00:25.697Z,7.40
2017-08-08T14:02:51.709Z,6.60
2017-08-08T14:05:17.745Z,7.07
2017-08-08T14:07:43.752Z,7.30
2017-08-08T14:10:09.803Z,7.10
2017-08-08T14:12:37.601Z,8.20
2017-08-08T14:15:05.438Z,7.50
2017-08-08T14:17:33.240Z,8.13
2017-08-08T14:20:01.045Z,6.03
2017-08-08T14:22:27.061Z,6.90
2017-08-08T14:24:53.089Z,7.40
2017-08-08T14:27:19.093Z,7.00
2017-08-08T14:29:45.109Z,6.33
2017-08-08T14:32:11.869Z,6.90
2017-08-08T14:34:37.897Z,6.17
2017-08-08T14:37:03.949Z,6.20
2017-08-08T14:39:29.970Z,7.10
2017-08-08T14:41:56.733Z,7.03
2017-08-08T14:44:22.774Z,6.30
2017-08-08T14:46:48.793Z,6.87
2017-08-08T14:49:14.817Z,6.70
2017-08-08T14:51:40.861Z,6.67
2017-08-08T14:54:06.996Z,6.00
2017-08-08T14:56:33.087Z,6.30
2017-08-08T14:58:59.136Z,6.70
2017-08-08T15:01:25.141Z,6.60
2017-08-08T15:03:51.154Z,6.57
2017-08-08T15:06:17.181Z,6.30
2017-08-08T15:08:43.186Z,6.17
2017-08-08T15:11:09.193Z,5.97
2017-08-08T15:13:35.962Z,6.30
2017-08-08T15:16:01.981Z,6.30
2017-08-08T15:18:28.211Z,6.30
2017-08-08T15:20:54.204Z,5.90
2017-08-08T15:23:20.193Z,7.80
2017-08-08T15:25:46.190Z,6.87
2017-08-08T15:28:12.211Z,5.83
2017-08-08T15:30:38.226Z,5.73
2017-08-08T15:33:04.236Z,6.07
2017-08-08T15:35:30.277Z,6.00
2017-08-08T15:37:56.290Z,5.63
2017-08-08T15:40:22.326Z,5.13
2017-08-08T15:42:48.373Z,5.13
2017-08-08T15:45:14.385Z,5.63
2017-08-08T15:47:40.531Z,6.43
2017-08-08T15:50:07.299Z,4.83
2017-08-08T15:52:33.305Z,6.17
2017-08-08T15:54:59.336Z,6.20
2017-08-08T15:57:25.345Z,5.27
2017-08-08T15:59:51.326Z,6.40
2017-08-08T16:02:17.336Z,5.13
2017-08-08T16:04:45.102Z,5.00
2017-08-08T16:07:12.908Z,4.57
2017-08-08T16:09:40.696Z,5.00
2017-08-08T16:12:08.486Z,5.87
2017-08-08T16:14:36.284Z,4.17
2017-08-08T16:17:04.113Z,5.10
2017-08-08T16:19:31.880Z,4.43
2017-08-08T16:21:59.677Z,6.13
2017-08-08T16:24:27.476Z,4.33
2017-08-08T16:26:55.272Z,5.23
2017-08-08T16:29:23.051Z,4.77
2017-08-08T16:31:50.817Z,4.50
2017-08-08T16:34:18.605Z,5.10
2017-08-08T16:36:46.405Z,4.40
2017-08-08T16:39:14.216Z,4.77
2017-08-08T16:41:42.027Z,5.80
2017-08-08T16:44:09.846Z,5.00
2017-08-08T16:46:37.668Z,4.57
2017-08-08T16:49:05.503Z,4.90
2017-08-08T16:51:33.365Z,4.67
2017-08-08T16:54:01.190Z,5.60
2017-08-08T16:56:29.014Z,6.23
2017-08-08T16:58:56.821Z,7.10
2017-08-08T17:01:24.624Z,5.50
2017-08-08T17:03:52.419Z,5.83
2017-08-08T17:06:20.237Z,6.13
2017-08-08T17:08:48.060Z,5.40
2017-08-08T17:11:15.880Z,5.87
2017-08-08T17:13:43.688Z,4.80
2017-08-08T17:16:18.454Z,5.00
2017-08-08T17:18:46.260Z,5.23
2017-08-08T17:21:14.080Z,6.40
2017-08-08T17:23:41.891Z,7.47
2017-08-08T17:26:09.708Z,7.00
2017-08-08T17:28:37.521Z,5.90
2017-08-08T17:31:05.344Z,6.00
2017-08-08T17:33:33.140Z,6.00
2017-08-08T17:36:00.939Z,7.00
2017-08-08T17:38:28.757Z,6.90
2017-08-08T17:40:56.573Z,6.30
2017-08-08T17:43:24.388Z,5.60
2017-08-08T17:45:52.204Z,6.80
2017-08-08T17:48:20.017Z,5.97
2017-08-08T17:50:47.845Z,8.03
2017-08-08T17:53:15.657Z,7.87
2017-08-08T17:55:43.468Z,7.70
2017-08-08T17:58:11.297Z,4.90
2017-08-08T18:00:39.095Z,6.20
2017-08-08T18:03:05.150Z,6.77
2017-08-08T18:05:31.182Z,8.70
2017-08-08T18:07:57.962Z,8.70
2017-08-08T18:10:23.992Z,11.87
2017-08-08T18:12:50.021Z,11.10
2017-08-08T18:15:16.805Z,13.23
2017-08-08T18:17:42.877Z,15.00
2017-08-08T18:20:08.974Z,13.63
2017-08-08T18:22:35.742Z,14.50
2017-08-08T18:25:01.792Z,18.00
2017-08-08T18:27:27.834Z,16.30
2017-08-08T18:29:53.873Z,16.70
2017-08-08T18:32:19.913Z,15.40
2017-08-08T18:34:45.957Z,18.90
2017-08-08T18:37:12.743Z,21.77
2017-08-08T18:39:38.791Z,20.90
2017-08-08T18:42:05.585Z,18.60
2017-08-08T18:44:31.622Z,19.80
2017-08-08T18:46:58.381Z,21.63
2017-08-08T18:49:24.402Z,25.90
2017-08-08T18:51:50.436Z,27.87
2017-08-08T18:54:16.445Z,25.47
2017-08-08T18:56:42.474Z,24.07
2017-08-08T18:59:08.662Z,26.57
2017-08-08T19:01:34.689Z,21.73
2017-08-08T19:04:00.713Z,23.37
2017-08-08T19:06:27.484Z,21.73
2017-08-08T19:08:53.504Z,22.67
2017-08-08T19:11:19.512Z,27.30
2017-08-08T19:13:45.533Z,24.87
2017-08-08T19:16:11.545Z,28.53
2017-08-08T19:18:37.564Z,28.10
2017-08-08T19:21:04.333Z,27.10
2017-08-08T19:23:30.361Z,26.97
2017-08-08T19:25:56.393Z,27.70
2017-08-08T19:28:22.409Z,31.07
2017-08-08T19:30:48.444Z,31.30
2017-08-08T19:33:15.204Z,33.27
2017-08-08T19:35:41.260Z,30.90
2017-08-08T19:38:07.298Z,30.13
2017-08-08T19:40:33.330Z,32.37
2017-08-08T19:42:59.370Z,30.57
2017-08-08T19:45:25.400Z,33.77
2017-08-08T19:47:52.189Z,37.67
2017-08-08T19:50:18.240Z,35.77
2017-08-08T19:52:45.004Z,34.17
2017-08-08T19:55:11.041Z,33.53
2017-08-08T19:57:37.101Z,35.73
2017-08-08T20:00:03.141Z,37.20
2017-08-08T20:02:29.192Z,38.93
2017-08-08T20:04:55.996Z,37.70
2017-08-08T20:07:22.058Z,38.50
2017-08-08T20:09:48.088Z,35.47
2017-08-08T20:12:14.127Z,33.40
2017-08-08T20:14:40.188Z,33.20
2017-08-08T20:17:06.228Z,34.40
2017-08-08T20:19:32.288Z,37.33
2017-08-08T20:21:58.313Z,37.53
2017-08-08T20:24:31.391Z,39.30
2017-08-08T20:26:57.449Z,36.60
2017-08-08T20:29:23.500Z,39.60
2017-08-08T20:31:49.541Z,41.57
2017-08-08T20:34:15.567Z,42.37
2017-08-08T20:36:41.601Z,42.80
2017-08-08T20:39:08.387Z,42.67
2017-08-08T20:41:34.412Z,42.73
2017-08-08T20:44:00.456Z,40.17
2017-08-08T20:46:27.276Z,40.83
2017-08-08T20:48:53.276Z,41.07
2017-08-08T20:51:20.080Z,36.33
2017-08-08T20:53:46.115Z,34.37
2017-08-08T20:56:12.137Z,34.33
2017-08-08T20:58:39.033Z,31.90
2017-08-08T21:01:05.057Z,28.30
2017-08-08T21:03:31.834Z,30.83
2017-08-08T21:05:57.865Z,32.83
2017-08-08T21:08:23.925Z,31.97
2017-08-08T21:10:49.963Z,31.40
2017-08-08T21:13:16.013Z,31.80
2017-08-08T21:15:42.038Z,32.77
2017-08-08T21:18:08.820Z,33.67
2017-08-08T21:20:34.832Z,32.67
2017-08-08T21:23:00.865Z,31.20
2017-08-08T21:25:26.962Z,30.57
2017-08-08T21:27:52.997Z,31.20
2017-08-08T21:30:19.827Z,29.90
2017-08-08T21:32:46.595Z,27.43
2017-08-08T21:35:12.632Z,27.53
2017-08-08T21:37:38.645Z,29.47
2017-08-08T21:40:04.677Z,27.87
2017-08-08T21:42:31.465Z,27.60
2017-08-08T21:44:57.514Z,26.43
2017-08-08T21:47:23.549Z,25.80
2017-08-08T21:49:49.604Z,26.50
2017-08-08T21:52:15.648Z,24.67
2017-08-08T21:54:41.753Z,26.83
2017-08-08T21:57:07.820Z,25.23
2017-08-08T21:59:33.861Z,25.07
2017-08-08T22:01:59.925Z,25.33
2017-08-08T22:04:25.997Z,24.37
2017-08-08T22:06:52.057Z,23.80
2017-08-08T22:09:18.104Z,23.10
2017-08-08T22:11:44.872Z,25.90
2017-08-08T22:14:10.924Z,26.10
2017-08-08T22:16:36.968Z,26.63
2017-08-08T22:19:03.008Z,24.57
2017-08-08T22:21:29.048Z,25.10
2017-08-08T22:23:55.084Z,25.27
2017-08-08T22:26:21.141Z,24.90
2017-08-08T22:28:47.165Z,24.67
2017-08-08T22:31:13.195Z,25.57
2017-08-08T22:33:39.973Z,23.77
2017-08-08T22:36:06.002Z,24.97
2017-08-08T22:38:32.073Z,23.77
2017-08-08T22:40:58.120Z,25.97
2017-08-08T22:43:24.156Z,24.50
2017-08-08T22:45:50.944Z,24.70
2017-08-08T22:48:16.983Z,24.20
2017-08-08T22:50:43.134Z,25.23
2017-08-08T22:53:09.177Z,23.90
2017-08-08T22:55:35.208Z,26.43
2017-08-08T22:58:01.278Z,26.80
2017-08-08T23:00:27.305Z,25.13
2017-08-08T23:02:53.332Z,23.67
2017-08-08T23:05:19.388Z,24.67
2017-08-08T23:07:45.412Z,24.70
2017-08-08T23:10:11.442Z,23.83
2017-08-08T23:12:37.506Z,23.80
2017-08-08T23:15:03.544Z,23.50
2017-08-08T23:17:29.579Z,21.97
2017-08-08T23:19:55.625Z,23.93
2017-08-08T23:22:21.674Z,21.60
2017-08-08T23:24:47.725Z,24.77
2017-08-08T23:27:14.513Z,22.27
2017-08-08T23:29:40.564Z,21.20
2017-08-08T23:32:07.357Z,21.90
2017-08-08T23:34:33.402Z,20.40
2017-08-08T23:36:59.448Z,21.17
2017-08-08T23:39:25.506Z,22.33
2017-08-08T23:41:51.559Z,24.87
2017-08-08T23:44:17.594Z,24.30
2017-08-08T23:46:43.626Z,29.07
2017-08-08T23:49:09.645Z,29.50
2017-08-08T23:51:35.664Z,27.60
2017-08-08T23:54:01.691Z,29.63
2017-08-08T23:56:27.710Z,32.00
2017-08-08T23:58:53.838Z,32.70
